createdAt,value
2024-02-13T00:01:43.768Z,6.78
2024-02-13T00:04:16.003Z,6.80
2024-02-13T00:06:43.194Z,6.79
2024-02-13T00:09:10.266Z,6.75
2024-02-13T00:11:36.912Z,6.71
2024-02-13T00:14:08.841Z,6.72
2024-02-13T00:16:39.957Z,6.77
2024-02-13T00:19:06.713Z,6.76
2024-02-13T00:21:34.204Z,6.82
2024-02-13T00:24:01.216Z,6.70
2024-02-13T00:26:27.927Z,6.71
2024-02-13T00:28:54.525Z,6.71
2024-02-13T00:31:22.482Z,6.70
2024-02-13T00:33:49.706Z,6.69
2024-02-13T00:36:16.999Z,6.70
2024-02-13T00:38:45.070Z,6.77
2024-02-13T00:41:11.771Z,6.76
2024-02-13T00:43:38.422Z,6.72
2024-02-13T00:46:05.183Z,6.64
2024-02-13T00:48:33.390Z,6.60
2024-02-13T00:51:00.065Z,6.51
2024-02-13T00:53:26.772Z,6.61
2024-02-13T00:55:53.687Z,6.60
2024-02-13T00:58:20.375Z,6.51
2024-02-13T01:00:47.107Z,6.56
2024-02-13T01:03:13.742Z,6.62
2024-02-13T01:05:45.220Z,6.62
2024-02-13T01:08:11.949Z,6.72
2024-02-13T01:10:38.674Z,6.79
2024-02-13T01:13:06.085Z,6.79
2024-02-13T01:15:33.192Z,6.70
2024-02-13T01:18:00.435Z,6.65
2024-02-13T01:20:27.214Z,6.77
2024-02-13T01:22:55.362Z,6.82
2024-02-13T01:25:22.015Z,6.70
2024-02-13T01:27:48.731Z,6.67
2024-02-13T01:30:15.482Z,6.74
2024-02-13T01:32:42.360Z,6.79
2024-02-13T01:35:10.035Z,6.74
2024-02-13T01:37:36.768Z,6.75
2024-02-13T01:40:06.886Z,6.75
2024-02-13T01:42:38.438Z,6.77
2024-02-13T01:45:06.945Z,6.77
2024-02-13T01:47:33.648Z,6.75
2024-02-13T01:50:00.375Z,6.83
2024-02-13T01:52:27.260Z,6.78
2024-02-13T01:54:53.855Z,6.90
2024-02-13T01:57:21.854Z,6.92
2024-02-13T01:59:48.661Z,6.86
2024-02-13T02:02:15.411Z,6.93
2024-02-13T02:04:42.351Z,6.83
2024-02-13T02:07:09.189Z,6.86
2024-02-13T02:09:36.130Z,6.82
2024-02-13T02:12:03.012Z,6.83
2024-02-13T02:14:31.322Z,6.82
2024-02-13T02:17:07.508Z,6.82
2024-02-13T02:19:34.804Z,6.75
2024-02-13T02:22:01.376Z,6.77
2024-02-13T02:24:27.977Z,6.81
2024-02-13T02:26:57.913Z,6.83
2024-02-13T02:29:26.176Z,6.81
2024-02-13T02:31:52.843Z,6.82
2024-02-13T02:34:22.221Z,6.80
2024-02-13T02:36:52.924Z,6.90
2024-02-13T02:39:20.080Z,6.99
2024-02-13T02:41:50.881Z,6.86
2024-02-13T02:44:20.226Z,6.73
2024-02-13T02:46:48.536Z,6.87
2024-02-13T02:49:17.057Z,6.94
2024-02-13T02:51:43.677Z,6.92
2024-02-13T02:54:10.398Z,6.87
2024-02-13T02:56:40.124Z,6.90
2024-02-13T02:59:06.816Z,6.95
2024-02-13T03:01:35.440Z,6.93
2024-02-13T03:04:05.868Z,6.91
2024-02-13T03:06:34.916Z,7.02
2024-02-13T03:09:01.773Z,6.92
2024-02-13T03:11:28.447Z,6.91
2024-02-13T03:13:55.089Z,6.93
2024-02-13T03:16:21.659Z,6.93
2024-02-13T03:18:49.704Z,6.95
2024-02-13T03:21:16.337Z,6.95
2024-02-13T03:23:43.942Z,6.89
2024-02-13T03:26:10.387Z,6.98
2024-02-13T03:28:37.648Z,6.99
2024-02-13T03:31:06.002Z,6.96
2024-02-13T03:33:33.088Z,7.03
2024-02-13T03:36:02.552Z,6.87
2024-02-13T03:38:29.159Z,6.82
2024-02-13T03:40:57.164Z,6.79
2024-02-13T03:43:23.817Z,6.96
2024-02-13T03:45:50.421Z,6.84
2024-02-13T03:48:18.023Z,6.94
2024-02-13T03:50:44.850Z,6.88
2024-02-13T03:53:15.727Z,6.92
2024-02-13T03:55:42.583Z,6.89
2024-02-13T03:58:09.201Z,6.85
2024-02-13T04:00:36.205Z,6.94
2024-02-13T04:03:02.841Z,6.91
2024-02-13T04:05:29.941Z,6.75
2024-02-13T04:07:56.916Z,6.83
2024-02-13T04:10:25.060Z,6.82
2024-02-13T04:12:51.819Z,6.83
2024-02-13T04:15:18.491Z,6.74
2024-02-13T04:17:45.741Z,6.72
2024-02-13T04:20:12.795Z,6.69
2024-02-13T04:22:39.526Z,6.69
2024-02-13T04:25:07.345Z,6.70
2024-02-13T04:27:35.943Z,6.65
2024-02-13T04:30:03.525Z,6.66
2024-02-13T04:32:30.380Z,6.70
2024-02-13T04:34:57.591Z,6.68
2024-02-13T04:37:24.453Z,6.55
2024-02-13T04:39:51.063Z,6.64
2024-02-13T04:42:30.416Z,6.66
2024-02-13T04:44:58.809Z,6.63
2024-02-13T04:47:25.782Z,6.70
2024-02-13T04:49:52.408Z,6.63
2024-02-13T04:52:19.141Z,6.59
2024-02-13T04:54:45.798Z,6.56
2024-02-13T04:57:12.908Z,6.39
2024-02-13T04:59:49.173Z,6.51
2024-02-13T05:02:19.241Z,6.48
2024-02-13T05:05:05.011Z,6.45
2024-02-13T05:07:31.678Z,6.57
2024-02-13T05:09:58.337Z,6.55
2024-02-13T05:12:25.256Z,6.58
2024-02-13T05:14:53.677Z,6.52
2024-02-13T05:17:22.549Z,6.40
2024-02-13T05:19:51.929Z,6.44
2024-02-13T05:22:18.607Z,6.50
2024-02-13T05:24:45.189Z,6.45
2024-02-13T05:27:11.856Z,6.47
2024-02-13T05:29:42.847Z,6.30
2024-02-13T05:32:09.749Z,6.49
2024-02-13T05:34:38.211Z,6.41
2024-02-13T05:37:06.341Z,6.44
2024-02-13T05:39:32.922Z,6.35
2024-02-13T05:41:59.617Z,6.56
2024-02-13T05:44:26.246Z,6.58
2024-02-13T05:46:52.812Z,6.57
2024-02-13T05:49:19.434Z,6.61
2024-02-13T05:51:47.414Z,6.62
2024-02-13T05:54:15.435Z,6.53
2024-02-13T05:56:42.245Z,6.56
2024-02-13T05:59:10.368Z,6.49
2024-02-13T06:01:37.159Z,6.48
2024-02-13T06:04:07.432Z,6.42
2024-02-13T06:06:38.561Z,6.48
2024-02-13T06:09:07.739Z,6.48
2024-02-13T06:11:37.556Z,6.49
2024-02-13T06:14:04.260Z,6.45
2024-02-13T06:16:31.302Z,6.31
2024-02-13T06:18:58.012Z,6.24
2024-02-13T06:21:27.351Z,6.39
2024-02-13T06:23:54.508Z,6.34
2024-02-13T06:26:22.506Z,6.37
2024-02-13T06:28:49.233Z,6.42
2024-02-13T06:31:16.470Z,6.43
2024-02-13T06:33:43.511Z,6.37
2024-02-13T06:36:11.366Z,6.28
2024-02-13T06:38:37.995Z,6.32
2024-02-13T06:41:07.708Z,6.04
2024-02-13T06:43:36.092Z,6.20
2024-02-13T06:46:02.826Z,6.26
2024-02-13T06:48:29.712Z,6.27
2024-02-13T06:50:56.454Z,6.20
2024-02-13T06:53:23.770Z,6.25
2024-02-13T06:55:50.364Z,6.25
2024-02-13T06:58:18.450Z,6.36
2024-02-13T07:00:46.554Z,6.45
2024-02-13T07:03:13.288Z,6.29
2024-02-13T07:05:39.958Z,6.24
2024-02-13T07:08:07.253Z,6.29
2024-02-13T07:10:35.096Z,6.46
2024-02-13T07:13:01.726Z,6.47
2024-02-13T07:15:28.349Z,6.50
2024-02-13T07:18:00.608Z,6.45
2024-02-13T07:20:29.518Z,6.55
2024-02-13T07:22:56.372Z,6.59
2024-02-13T07:25:23.100Z,6.67
2024-02-13T07:27:52.672Z,6.67
2024-02-13T07:30:19.622Z,6.74
2024-02-13T07:32:47.346Z,6.81
2024-02-13T07:35:15.833Z,6.80
2024-02-13T07:37:42.723Z,6.72
2024-02-13T07:40:09.751Z,6.75
2024-02-13T07:42:36.337Z,6.72
2024-02-13T07:45:04.729Z,6.92
2024-02-13T07:47:31.528Z,7.04
2024-02-13T07:50:01.168Z,7.00
2024-02-13T07:52:29.159Z,6.98
2024-02-13T07:54:55.705Z,6.98
2024-02-13T07:57:22.646Z,7.05
2024-02-13T07:59:55.827Z,7.07
2024-02-13T08:02:24.436Z,7.18
2024-02-13T08:04:52.625Z,7.20
2024-02-13T08:07:19.434Z,7.19
2024-02-13T08:09:47.766Z,7.20
2024-02-13T08:12:14.550Z,7.43
2024-02-13T08:14:41.302Z,7.54
2024-02-13T08:17:09.591Z,7.48
2024-02-13T08:19:37.752Z,7.63
2024-02-13T08:22:04.813Z,7.58
2024-02-13T08:24:32.039Z,7.71
2024-02-13T08:27:00.167Z,7.77
2024-02-13T08:29:29.100Z,7.71
2024-02-13T08:31:57.910Z,7.76
2024-02-13T08:34:25.491Z,7.73
2024-02-13T08:36:53.353Z,7.79
2024-02-13T08:39:19.926Z,7.79
2024-02-13T08:41:46.591Z,7.97
2024-02-13T08:44:14.672Z,8.06
2024-02-13T08:46:41.387Z,8.31
2024-02-13T08:49:08.092Z,8.48
2024-02-13T08:51:37.987Z,8.58
2024-02-13T08:54:05.846Z,8.60
2024-02-13T08:56:32.526Z,8.63
2024-02-13T08:59:00.036Z,8.71
2024-02-13T09:01:27.875Z,8.74
2024-02-13T09:03:54.514Z,8.88
2024-02-13T09:06:21.584Z,8.99
2024-02-13T09:08:48.719Z,8.91
2024-02-13T09:11:15.552Z,9.00
2024-02-13T09:13:42.525Z,9.10
2024-02-13T09:16:12.326Z,9.43
2024-02-13T09:18:42.496Z,9.35
2024-02-13T09:21:11.205Z,9.28
2024-02-13T09:23:38.146Z,9.51
2024-02-13T09:26:05.427Z,9.55
2024-02-13T09:28:32.442Z,9.60
2024-02-13T09:30:59.394Z,9.62
2024-02-13T09:33:27.322Z,9.66
2024-02-13T09:35:56.055Z,9.68
2024-02-13T09:38:23.155Z,9.69
2024-02-13T09:40:50.231Z,9.67
2024-02-13T09:43:17.229Z,9.74
2024-02-13T09:45:45.582Z,9.82
2024-02-13T09:48:26.872Z,9.89
2024-02-13T09:50:59.475Z,10.19
2024-02-13T09:53:30.422Z,10.23
2024-02-13T09:56:00.377Z,10.15
2024-02-13T09:58:27.302Z,10.28
2024-02-13T10:00:58.497Z,10.42
2024-02-13T10:03:27.321Z,10.50
2024-02-13T10:05:55.623Z,10.61
2024-02-13T10:08:28.254Z,10.58
2024-02-13T10:11:00.919Z,10.66
2024-02-13T10:13:31.648Z,10.71
2024-02-13T10:15:58.244Z,10.70
2024-02-13T10:18:26.286Z,10.76
2024-02-13T10:20:53.070Z,10.93
2024-02-13T10:23:24.610Z,11.00
2024-02-13T10:25:51.332Z,11.03
2024-02-13T10:28:18.351Z,11.06
2024-02-13T10:30:49.785Z,11.08
2024-02-13T10:33:16.992Z,11.09
2024-02-13T10:35:43.890Z,11.25
2024-02-13T10:38:11.536Z,11.20
2024-02-13T10:40:40.749Z,11.06
2024-02-13T10:43:13.363Z,11.16
2024-02-13T10:45:40.293Z,11.21
2024-02-13T10:48:13.681Z,11.20
2024-02-13T10:50:42.099Z,11.29
2024-02-13T10:53:09.122Z,11.70
2024-02-13T10:55:36.038Z,11.58
2024-02-13T10:58:11.658Z,11.86
2024-02-13T11:00:41.244Z,11.79
2024-02-13T11:03:09.066Z,11.68
2024-02-13T11:05:37.191Z,11.77
2024-02-13T11:08:04.424Z,11.90
2024-02-13T11:10:35.859Z,12.05
2024-02-13T11:13:07.078Z,12.24
2024-02-13T11:15:34.439Z,12.15
2024-02-13T11:18:02.185Z,12.28
2024-02-13T11:20:31.572Z,12.33
2024-02-13T11:23:00.793Z,12.24
2024-02-13T11:25:28.311Z,12.33
2024-02-13T11:27:59.056Z,12.09
2024-02-13T11:30:29.406Z,12.30
2024-02-13T11:33:00.185Z,12.30
2024-02-13T11:35:31.482Z,12.33
2024-02-13T11:38:02.186Z,12.35
2024-02-13T11:40:28.841Z,12.47
2024-02-13T11:42:55.429Z,12.49
2024-02-13T11:45:22.743Z,12.57
2024-02-13T11:47:51.166Z,12.50
2024-02-13T11:50:21.215Z,12.52
2024-02-13T11:52:49.240Z,12.78
2024-02-13T11:55:16.044Z,12.67
2024-02-13T11:57:45.910Z,12.98
2024-02-13T12:00:20.214Z,12.97
2024-02-13T12:02:50.639Z,12.87
2024-02-13T12:05:20.479Z,12.93
2024-02-13T12:07:47.765Z,12.90
2024-02-13T12:10:15.878Z,12.88
2024-02-13T12:12:42.752Z,13.10
2024-02-13T12:15:11.695Z,12.87
2024-02-13T12:20:20.125Z,13.10
2024-02-13T12:22:48.429Z,13.26
2024-02-13T12:25:19.328Z,13.22
2024-02-13T12:27:46.136Z,13.29
2024-02-13T12:30:13.229Z,13.32
2024-02-13T12:32:41.065Z,13.29
2024-02-13T12:35:22.543Z,13.42
2024-02-13T12:37:53.228Z,13.41
2024-02-13T12:40:21.439Z,13.21
2024-02-13T12:42:48.129Z,13.51
2024-02-13T12:45:14.850Z,13.57
2024-02-13T12:47:42.815Z,13.78
2024-02-13T12:50:15.190Z,13.79
2024-02-13T12:52:41.930Z,13.67
2024-02-13T12:55:13.586Z,13.87
2024-02-13T12:57:41.850Z,14.06
2024-02-13T13:00:15.804Z,13.92
2024-02-13T13:02:42.868Z,13.96
2024-02-13T13:05:14.138Z,14.09
2024-02-13T13:07:41.872Z,14.18
2024-02-13T13:10:14.494Z,14.40
2024-02-13T13:12:45.725Z,14.31
2024-02-13T13:15:19.811Z,14.24
2024-02-13T13:17:49.506Z,14.27
2024-02-13T13:20:19.534Z,14.08
2024-02-13T13:22:48.890Z,13.62
2024-02-13T13:25:25.097Z,13.84
2024-02-13T13:27:52.898Z,13.83
2024-02-13T13:30:20.760Z,13.61
2024-02-13T13:32:48.240Z,13.69
2024-02-13T13:35:21.224Z,13.53
2024-02-13T13:37:48.890Z,13.81
2024-02-13T13:40:18.151Z,13.51
2024-02-13T13:42:44.914Z,13.51
2024-02-13T13:45:15.603Z,13.52
2024-02-13T13:47:45.775Z,13.32
2024-02-13T13:50:13.006Z,13.27
2024-02-13T13:52:39.553Z,13.42
2024-02-13T13:55:07.548Z,13.44
2024-02-13T13:57:35.533Z,13.43
2024-02-13T14:00:09.650Z,13.49
2024-02-13T14:02:37.711Z,13.45
2024-02-13T14:05:05.008Z,13.49
2024-02-13T14:07:31.425Z,13.52
2024-02-13T14:09:58.049Z,13.57
2024-02-13T14:12:24.610Z,13.66
2024-02-13T14:14:53.896Z,13.72
2024-02-13T14:17:20.745Z,13.62
2024-02-13T14:19:47.402Z,13.66
2024-02-13T14:22:15.962Z,13.67
2024-02-13T14:24:42.614Z,13.54
2024-02-13T14:27:11.844Z,13.54
2024-02-13T14:29:38.955Z,13.78
2024-02-13T14:32:07.532Z,13.78
2024-02-13T14:34:36.697Z,13.75
2024-02-13T14:37:07.102Z,13.79
2024-02-13T14:39:33.739Z,13.51
2024-02-13T14:42:01.180Z,13.51
2024-02-13T14:44:28.066Z,13.34
2024-02-13T14:46:58.380Z,13.47
2024-02-13T14:51:54.956Z,13.44
2024-02-13T14:54:22.524Z,13.35
2024-02-13T14:56:50.601Z,13.28
2024-02-13T14:59:17.446Z,13.14
2024-02-13T15:01:44.203Z,13.07
2024-02-13T15:04:10.911Z,13.20
2024-02-13T15:06:39.816Z,13.02
2024-02-13T15:09:11.059Z,12.94
2024-02-13T15:11:38.452Z,12.92
2024-02-13T15:14:06.821Z,12.80
2024-02-13T15:16:34.322Z,12.87
2024-02-13T15:19:02.779Z,13.07
2024-02-13T15:21:29.619Z,12.93
2024-02-13T15:23:57.635Z,12.82
2024-02-13T15:26:26.193Z,12.88
2024-02-13T15:28:53.967Z,12.70
2024-02-13T15:31:20.863Z,12.68
2024-02-13T15:33:50.264Z,12.79
2024-02-13T15:36:33.018Z,12.59
2024-02-13T15:39:19.765Z,12.78
2024-02-13T15:42:19.105Z,12.66
2024-02-13T15:45:04.649Z,12.77
2024-02-13T15:47:34.930Z,12.79
2024-02-13T15:50:02.265Z,12.92
2024-02-13T15:52:28.900Z,12.74
2024-02-13T15:54:57.366Z,12.78
2024-02-13T15:57:25.398Z,12.65
2024-02-13T15:59:53.125Z,12.56
2024-02-13T16:02:20.876Z,12.53
2024-02-13T16:04:48.245Z,12.56
2024-02-13T16:07:16.684Z,12.65
2024-02-13T16:09:44.980Z,12.77
2024-02-13T16:12:12.990Z,12.67
2024-02-13T16:14:39.759Z,12.79
2024-02-13T16:17:06.520Z,12.53
2024-02-13T16:19:33.369Z,12.67
2024-02-13T16:22:00.130Z,12.64
2024-02-13T16:24:26.759Z,12.57
2024-02-13T16:26:54.636Z,12.57
2024-02-13T16:29:28.558Z,12.31
2024-02-13T16:31:55.767Z,12.44
2024-02-13T16:34:22.878Z,12.34
2024-02-13T16:36:49.745Z,12.48
2024-02-13T16:39:18.728Z,12.50
2024-02-13T16:41:50.084Z,12.33
2024-02-13T16:44:18.868Z,12.46
2024-02-13T16:46:49.437Z,12.57
2024-02-13T16:49:16.692Z,12.52
2024-02-13T16:51:43.248Z,12.53
2024-02-13T16:54:11.056Z,12.49
2024-02-13T16:56:37.745Z,12.51
2024-02-13T16:59:05.284Z,12.46
2024-02-13T17:01:32.047Z,12.45
2024-02-13T17:04:01.986Z,12.35
2024-02-13T17:06:31.924Z,12.46
2024-02-13T17:08:58.884Z,12.43
2024-02-13T17:11:25.943Z,12.35
2024-02-13T17:13:52.599Z,12.50
2024-02-13T17:16:20.178Z,12.48
2024-02-13T17:18:47.248Z,12.43
2024-02-13T17:21:17.020Z,12.43
2024-02-13T17:23:44.801Z,12.34
2024-02-13T17:26:11.539Z,12.48
2024-02-13T17:28:39.895Z,12.41
2024-02-13T17:31:06.445Z,12.28
2024-02-13T17:33:33.153Z,12.27
2024-02-13T17:36:00.040Z,12.06
2024-02-13T17:38:28.853Z,12.30
2024-02-13T17:40:55.591Z,12.18
2024-02-13T17:43:22.204Z,12.24
2024-02-13T17:45:48.898Z,12.31
2024-02-13T17:48:15.824Z,12.37
2024-02-13T17:50:42.602Z,12.30
2024-02-13T17:53:09.282Z,12.07
2024-02-13T17:55:38.434Z,12.08
2024-02-13T17:58:05.200Z,12.07
2024-02-13T18:00:35.804Z,12.17
2024-02-13T18:03:05.558Z,12.26
2024-02-13T18:05:32.395Z,12.16
2024-02-13T18:08:04.442Z,12.17
2024-02-13T18:10:32.082Z,12.16
2024-02-13T18:13:00.180Z,12.17
2024-02-13T18:15:28.285Z,12.13
2024-02-13T18:17:56.784Z,12.01
2024-02-13T18:20:24.034Z,12.20
2024-02-13T18:22:51.346Z,12.13
2024-02-13T18:25:17.988Z,12.14
2024-02-13T18:27:44.789Z,12.19
2024-02-13T18:30:13.804Z,12.08
2024-02-13T18:32:40.582Z,11.98
2024-02-13T18:35:10.405Z,12.07
2024-02-13T18:37:38.205Z,11.92
2024-02-13T18:40:06.982Z,12.02
2024-02-13T18:42:33.717Z,12.02
2024-02-13T18:45:00.544Z,12.03
2024-02-13T18:47:29.749Z,12.05
2024-02-13T18:49:56.585Z,11.88
2024-02-13T18:52:24.670Z,11.97
2024-02-13T18:54:51.326Z,12.00
2024-02-13T18:57:17.990Z,11.93
2024-02-13T18:59:45.122Z,12.05
2024-02-13T19:02:11.757Z,12.03
2024-02-13T19:04:39.820Z,11.93
2024-02-13T19:07:06.584Z,12.05
2024-02-13T19:09:33.243Z,11.98
2024-02-13T19:11:59.923Z,11.99
2024-02-13T19:14:26.548Z,11.97
2024-02-13T19:16:54.497Z,11.83
2024-02-13T19:19:21.185Z,11.91
2024-02-13T19:21:49.220Z,11.80
2024-02-13T19:24:16.151Z,11.94
2024-02-13T19:26:42.897Z,11.86
2024-02-13T19:29:09.474Z,11.89
2024-02-13T19:31:36.016Z,12.03
2024-02-13T19:34:02.977Z,11.96
2024-02-13T19:36:31.542Z,11.78
2024-02-13T19:39:02.960Z,12.01
2024-02-13T19:41:29.650Z,12.02
2024-02-13T19:43:56.233Z,11.95
2024-02-13T19:46:24.134Z,11.74
2024-02-13T19:48:52.245Z,12.02
2024-02-13T19:51:19.394Z,11.92
2024-02-13T19:53:46.586Z,11.85
2024-02-13T19:56:15.448Z,11.87
2024-02-13T19:58:43.399Z,11.83
2024-02-13T20:01:10.327Z,11.87
2024-02-13T20:03:37.762Z,12.04
2024-02-13T20:06:04.703Z,11.95
2024-02-13T20:08:31.652Z,11.97
2024-02-13T20:10:58.478Z,11.83
2024-02-13T20:13:26.637Z,11.93
2024-02-13T20:15:53.237Z,11.91
2024-02-13T20:18:20.348Z,11.87
2024-02-13T20:20:47.357Z,11.90
2024-02-13T20:23:14.057Z,11.89
2024-02-13T20:25:40.681Z,11.85
2024-02-13T20:28:09.186Z,11.96
2024-02-13T20:30:40.114Z,11.88
2024-02-13T20:33:07.402Z,11.92
2024-02-13T20:35:34.084Z,11.78
2024-02-13T20:38:01.049Z,11.84
2024-02-13T20:40:27.704Z,11.93
2024-02-13T20:42:54.394Z,11.99
2024-02-13T20:45:23.550Z,11.92
2024-02-13T20:47:55.176Z,12.01
2024-02-13T20:50:22.125Z,11.96
2024-02-13T20:52:48.859Z,11.94
2024-02-13T20:55:16.892Z,12.02
2024-02-13T20:57:44.446Z,12.06
2024-02-13T21:00:15.455Z,12.05
2024-02-13T21:02:43.147Z,12.08
2024-02-13T21:05:11.360Z,12.10
2024-02-13T21:07:38.214Z,12.14
2024-02-13T21:10:07.124Z,11.97
2024-02-13T21:12:33.815Z,12.00
2024-02-13T21:15:00.654Z,12.09
2024-02-13T21:17:28.303Z,11.93
2024-02-13T21:20:00.758Z,12.03
2024-02-13T21:22:47.591Z,11.90
2024-02-13T21:25:14.175Z,11.98
2024-02-13T21:27:40.810Z,12.04
2024-02-13T21:30:08.304Z,11.93
2024-02-13T21:32:36.091Z,11.96
2024-02-13T21:35:04.151Z,12.07
2024-02-13T21:37:33.544Z,12.10
2024-02-13T21:40:00.218Z,12.04
2024-02-13T21:42:26.813Z,11.97
2024-02-13T21:44:53.441Z,12.02
2024-02-13T21:47:20.153Z,12.05
2024-02-13T21:49:46.928Z,12.03
2024-02-13T21:52:13.577Z,12.08
2024-02-13T21:54:41.490Z,12.11
2024-02-13T21:57:08.145Z,12.00
2024-02-13T21:59:34.871Z,12.15
2024-02-13T22:02:01.582Z,12.02
2024-02-13T22:04:31.293Z,12.13
2024-02-13T22:06:59.949Z,12.03
2024-02-13T22:09:26.390Z,12.14
2024-02-13T22:11:54.404Z,12.07
2024-02-13T22:14:21.381Z,11.98
2024-02-13T22:16:50.271Z,11.90
2024-02-13T22:19:17.057Z,11.81
2024-02-13T22:21:43.836Z,11.92
2024-02-13T22:24:10.666Z,11.86
2024-02-13T22:26:38.170Z,11.87
2024-02-13T22:29:07.446Z,11.70
2024-02-13T22:31:34.700Z,11.57
2024-02-13T22:34:01.542Z,11.57
2024-02-13T22:36:28.259Z,11.72
2024-02-13T22:38:55.478Z,11.56
2024-02-13T22:41:23.235Z,11.64
2024-02-13T22:43:49.979Z,11.48
2024-02-13T22:46:17.907Z,11.68
2024-02-13T22:48:44.641Z,11.60
2024-02-13T22:51:12.021Z,11.65
2024-02-13T22:53:38.726Z,11.57
2024-02-13T22:56:06.056Z,11.40
2024-02-13T22:58:33.024Z,11.52
2024-02-13T23:01:00.227Z,11.38
2024-02-13T23:03:29.380Z,11.46
2024-02-13T23:06:00.625Z,11.44
2024-02-13T23:08:29.626Z,11.54
2024-02-13T23:10:56.842Z,11.44
2024-02-13T23:13:28.642Z,11.44
2024-02-13T23:16:01.313Z,11.57
2024-02-13T23:18:29.527Z,11.27
2024-02-13T23:20:56.435Z,11.36
2024-02-13T23:23:23.086Z,11.45
2024-02-13T23:25:49.925Z,11.51
2024-02-13T23:28:17.435Z,11.43
2024-02-13T23:30:44.808Z,11.33
2024-02-13T23:33:12.191Z,11.34
2024-02-13T23:35:40.344Z,11.37
2024-02-13T23:38:09.202Z,11.35
2024-02-13T23:40:36.292Z,11.50
2024-02-13T23:43:03.008Z,11.61
2024-02-13T23:45:29.654Z,11.58
2024-02-13T23:47:56.299Z,11.41
2024-02-13T23:50:23.011Z,11.48
2024-02-13T23:52:51.236Z,11.51
2024-02-13T23:55:17.881Z,11.51
2024-02-13T23:57:47.206Z,11.66
